Time;durP1;ratioP1;P1;durP2;ratioP2;P2;SDS_P1;SDS_P2;PMS_P1;PMS_P2;Temp;Humidity;BMP_temperature;BMP_pressure;BME280_temperature;BME280_humidity;BME280_pressure;Samples;Min_cycle;Max_cycle;Signal;HPM_P1;HPM_P2
2021/11/07 00:00:40;;;;;;;32.40;19.02;;;;;;;6.66;94.81;100251.25;5071429;28;20205;-77
2021/11/07 00:03:12;;;;;;;30.15;16.63;;;;;;;6.82;93.78;100227.56;5071921;28;20921;-76
2021/11/07 00:05:42;;;;;;;27.45;15.27;;;;;;;6.91;93.35;100222.84;5070960;28;20546;-78
2021/11/07 00:08:22;;;;;;;29.65;16.48;;;;;;;6.92;93.09;100222.81;5071317;28;20185;-77
2021/11/07 00:10:52;;;;;;;30.65;17.42;;;;;;;6.95;93.01;100201.28;5055137;28;20305;-77
2021/11/07 00:13:22;;;;;;;28.95;17.13;;;;;;;6.98;93.09;100184.22;5071302;28;20223;-77
2021/11/07 00:15:50;;;;;;;33.08;17.95;;;;;;;6.91;93.28;100196.06;5070602;28;20257;-77
2021/11/07 00:18:21;;;;;;;28.60;15.55;;;;;;;6.88;93.23;100195.25;5067645;28;20231;-78
2021/11/07 00:20:53;;;;;;;29.00;18.23;;;;;;;6.76;93.38;100198.34;5071377;28;20594;-78
2021/11/07 00:23:30;;;;;;;31.23;16.45;;;;;;;6.93;92.51;100188.88;5071354;28;20523;-77
2021/11/07 00:26:01;;;;;;;29.55;16.83;;;;;;;6.97;91.97;100193.19;5070689;28;20196;-78
2021/11/07 00:28:34;;;;;;;30.80;16.60;;;;;;;6.94;90.50;100194.16;5071002;28;20246;-77
2021/11/07 00:31:11;;;;;;;28.08;17.80;;;;;;;6.46;93.70;100190.34;5071078;28;20185;-77
2021/11/07 00:33:53;;;;;;;36.83;17.60;;;;;;;6.46;94.92;100189.47;5071011;28;20205;-77
2021/11/07 00:36:26;;;;;;;33.85;18.58;;;;;;;6.67;93.95;100195.94;5071388;28;20196;-77
2021/11/07 00:38:58;;;;;;;28.05;17.25;;;;;;;6.63;93.87;100189.81;5070907;28;20189;-77
2021/11/07 00:41:32;;;;;;;26.90;16.80;;;;;;;6.42;95.28;100193.16;5070890;28;20189;-77
2021/11/07 00:44:03;;;;;;;24.50;16.30;;;;;;;6.52;94.52;100180.41;5071214;28;20185;-78
2021/11/07 00:46:36;;;;;;;29.90;17.38;;;;;;;6.57;94.56;100176.63;5071458;28;20264;-76
2021/11/07 00:49:06;;;;;;;33.38;17.83;;;;;;;6.45;95.12;100159.19;5071296;28;20585;-78
2021/11/07 00:51:36;;;;;;;34.38;18.95;;;;;;;6.70;93.89;100153.03;5071099;28;20624;-78
2021/11/07 00:54:11;;;;;;;36.53;22.10;;;;;;;6.84;91.47;100166.81;5071219;28;20705;-78
2021/11/07 00:56:42;;;;;;;27.30;17.10;;;;;;;6.73;91.49;100162.75;5070797;28;20189;-77
2021/11/07 00:59:24;;;;;;;27.05;15.52;;;;;;;6.45;93.81;100153.84;5071320;28;20608;-78
2021/11/07 01:01:55;;;;;;;29.27;18.23;;;;;;;6.29;94.96;100157.94;5071190;28;20608;-78
2021/11/07 01:04:23;;;;;;;31.02;18.85;;;;;;;6.26;95.90;100144.63;5071499;28;20873;-78
2021/11/07 01:06:50;;;;;;;32.85;17.35;;;;;;;6.35;95.30;100141.66;5070773;28;20205;-78
2021/11/07 01:09:16;;;;;;;28.90;18.52;;;;;;;6.29;95.50;100140.97;5071078;28;20194;-78
2021/11/07 01:11:43;;;;;;;28.00;16.23;;;;;;;6.20;96.17;100135.03;5070767;28;20191;-78
2021/11/07 01:14:12;;;;;;;29.10;16.98;;;;;;;6.24;97.11;100126.00;5070305;28;20343;-78
2021/11/07 01:16:39;;;;;;;27.15;16.40;;;;;;;6.31;96.12;100142.72;5071592;28;20522;-78
2021/11/07 01:19:07;;;;;;;25.83;15.73;;;;;;;6.20;96.73;100152.88;5074002;28;20195;-78
2021/11/07 01:21:37;;;;;;;30.58;17.52;;;;;;;6.26;95.94;100133.94;5074154;28;20255;-77
2021/11/07 01:24:09;;;;;;;30.45;18.10;;;;;;;6.16;96.51;100108.44;5074153;28;20178;-77
2021/11/07 01:26:39;;;;;;;28.88;17.70;;;;;;;6.10;96.95;100100.59;5074567;28;20219;-77
2021/11/07 01:29:11;;;;;;;23.63;14.93;;;;;;;6.10;97.91;100096.13;5074133;28;20206;-77
2021/11/07 01:31:38;;;;;;;28.40;17.48;;;;;;;6.18;96.87;100103.91;5073897;28;20627;-77
2021/11/07 01:34:10;;;;;;;26.02;15.93;;;;;;;6.06;95.98;100089.16;5073919;28;20229;-77
2021/11/07 01:36:41;;;;;;;33.22;19.33;;;;;;;6.03;97.39;100087.41;5073944;28;20189;-77
2021/11/07 01:39:14;;;;;;;30.85;17.27;;;;;;;6.04;96.78;100080.28;5074334;28;20582;-77
2021/11/07 01:41:55;;;;;;;32.47;19.30;;;;;;;5.95;98.00;100088.59;5073724;28;20285;-77
2021/11/07 01:44:22;;;;;;;30.70;18.80;;;;;;;6.07;97.76;100090.88;5073350;28;20213;-77
2021/11/07 01:46:52;;;;;;;24.52;14.95;;;;;;;6.08;97.41;100097.09;5074094;28;20662;-75
2021/11/07 01:49:22;;;;;;;24.05;15.65;;;;;;;6.04;97.91;100105.22;5073990;28;20196;-76
2021/11/07 01:51:51;;;;;;;26.13;16.70;;;;;;;6.04;98.17;100105.22;5074125;28;20186;-77
2021/11/07 01:54:25;;;;;;;28.30;15.00;;;;;;;6.19;97.07;100102.97;5074037;28;20693;-77
2021/11/07 01:56:52;;;;;;;24.77;15.75;;;;;;;5.99;97.52;100116.97;5074294;28;20874;-77
2021/11/07 01:59:19;;;;;;;24.05;15.88;;;;;;;6.20;96.14;100108.28;5073571;28;20225;-77
2021/11/07 02:01:51;;;;;;;25.80;14.90;;;;;;;6.21;95.63;100101.13;5074014;28;20312;-77
2021/11/07 02:04:19;;;;;;;23.50;14.90;;;;;;;5.90;97.45;100099.41;5053813;28;20185;-78
2021/11/07 02:06:46;;;;;;;28.20;16.95;;;;;;;5.96;97.30;100096.56;5054409;28;20186;-78
2021/11/07 02:09:13;;;;;;;29.23;17.48;;;;;;;5.95;98.35;100088.59;5073851;28;20181;-78
2021/11/07 02:11:39;;;;;;;22.98;14.38;;;;;;;5.99;97.40;100090.25;5073620;28;20199;-76
2021/11/07 02:14:07;;;;;;;29.52;17.23;;;;;;;6.08;97.48;100097.09;5073184;28;20533;-77
2021/11/07 02:16:33;;;;;;;31.50;19.60;;;;;;;6.18;96.78;100106.59;5073586;28;20181;-78
2021/11/07 02:19:00;;;;;;;35.17;18.40;;;;;;;6.16;96.41;100111.97;5073122;28;20212;-78
2021/11/07 02:21:28;;;;;;;35.38;19.42;;;;;;;6.25;96.81;100110.81;5073271;28;20548;-77
2021/11/07 02:23:55;;;;;;;29.17;17.00;;;;;;;6.39;95.61;100113.91;5073589;28;20182;-78
2021/11/07 02:26:21;;;;;;;32.90;19.67;;;;;;;6.45;94.31;100107.50;5073014;28;20205;-78
2021/11/07 02:28:49;;;;;;;30.92;16.85;;;;;;;6.58;93.53;100124.88;5072101;28;20600;-78
2021/11/07 02:31:17;;;;;;;25.00;15.50;;;;;;;6.55;93.09;100113.41;5073081;28;20639;-77
2021/11/07 02:33:45;;;;;;;23.67;14.48;;;;;;;6.26;94.29;100118.78;5072902;28;20225;-77
2021/11/07 02:36:15;;;;;;;25.25;14.82;;;;;;;6.17;96.32;100097.69;5073240;28;20558;-77
2021/11/07 02:38:44;;;;;;;27.73;16.58;;;;;;;6.06;97.56;100083.81;5073182;28;20188;-77
2021/11/07 02:41:11;;;;;;;31.98;17.95;;;;;;;5.98;98.72;100084.03;5072611;28;20208;-76
2021/11/07 02:43:43;;;;;;;39.25;20.25;;;;;;;6.23;97.84;100092.13;5073011;28;20635;-77
2021/11/07 02:46:15;;;;;;;34.88;18.83;;;;;;;6.28;97.87;100093.78;5072592;28;20204;-77
2021/11/07 02:48:43;;;;;;;47.20;22.80;;;;;;;6.32;96.91;100107.00;5073013;28;20642;-77
2021/11/07 02:51:10;;;;;;;40.72;21.33;;;;;;;6.12;98.92;100112.13;5072533;28;20596;-77
2021/11/07 02:53:38;;;;;;;36.63;19.83;;;;;;;6.29;98.01;100116.91;5072545;28;20223;-76
2021/11/07 02:56:06;;;;;;;34.33;19.58;;;;;;;6.13;99.34;100105.84;5072611;28;20270;-77
2021/11/07 02:58:33;;;;;;;33.47;19.85;;;;;;;6.22;98.84;100092.19;5072471;28;20201;-77
2021/11/07 03:01:01;;;;;;;38.92;20.55;;;;;;;6.38;97.50;100089.91;5072833;28;20530;-77
2021/11/07 03:03:28;;;;;;;32.17;17.27;;;;;;;6.33;97.54;100086.47;5072628;28;20197;-78
2021/11/07 03:05:55;;;;;;;35.08;20.05;;;;;;;6.45;96.64;100072.72;5072249;28;20196;-78
2021/11/07 03:08:22;;;;;;;30.67;17.80;;;;;;;6.41;96.78;100074.59;5072731;28;20276;-77
2021/11/07 03:10:49;;;;;;;28.48;17.27;;;;;;;6.42;96.65;100087.06;5072162;28;20219;-77
2021/11/07 03:13:19;;;;;;;27.10;16.63;;;;;;;6.43;96.74;100083.47;5052488;28;20196;-77
2021/11/07 03:15:46;;;;;;;23.75;16.05;;;;;;;6.70;95.13;100075.41;5051861;28;20662;-77
2021/11/07 03:18:13;;;;;;;26.58;15.27;;;;;;;6.86;91.94;100071.28;5052162;28;20187;-76
2021/11/07 03:20:40;;;;;;;25.85;16.80;;;;;;;6.68;92.25;100070.13;5051894;28;20202;-76
2021/11/07 03:23:08;;;;;;;25.23;15.60;;;;;;;6.72;92.28;100062.88;5052490;28;20189;-77
2021/11/07 03:25:45;;;;;;;23.05;14.57;;;;;;;6.78;91.56;100061.75;5053680;28;20234;-77
2021/11/07 03:28:11;;;;;;;20.42;14.60;;;;;;;6.76;91.37;100064.50;5071975;28;20204;-77
2021/11/07 03:30:46;;;;;;;29.20;15.07;;;;;;;6.67;91.92;100075.50;5072210;28;20686;-78
2021/11/07 03:33:21;;;;;;;28.08;16.60;;;;;;;6.41;93.82;100071.06;5072226;28;20247;-77
2021/11/07 03:35:48;;;;;;;25.73;17.17;;;;;;;6.59;94.03;100066.88;5072142;28;20280;-77
2021/11/07 03:38:15;;;;;;;24.70;16.25;;;;;;;6.71;93.48;100065.59;5072167;28;20189;-78
2021/11/07 03:40:43;;;;;;;24.63;14.88;;;;;;;6.87;91.69;100065.00;5071384;28;20206;-78
2021/11/07 03:43:09;;;;;;;27.00;15.18;;;;;;;6.87;92.24;100056.06;5071626;28;20194;-78
2021/11/07 03:45:36;;;;;;;28.88;15.73;;;;;;;6.86;91.57;100047.19;5071943;28;20241;-78
2021/11/07 03:48:05;;;;;;;23.83;14.43;;;;;;;7.07;90.47;100036.63;5071614;28;20189;-78
2021/11/07 03:50:32;;;;;;;27.92;14.55;;;;;;;7.12;89.75;100018.56;5071998;28;20552;-77
2021/11/07 03:52:59;;;;;;;23.27;15.00;;;;;;;7.15;88.88;100026.50;5072030;28;20592;-77
2021/11/07 03:55:26;;;;;;;23.33;15.55;;;;;;;7.15;89.29;100012.25;5071881;28;20701;-77
2021/11/07 03:57:53;;;;;;;29.15;15.90;;;;;;;7.21;88.27;100002.19;5071608;28;20646;-77
2021/11/07 04:00:22;;;;;;;27.65;16.00;;;;;;;7.04;88.82;99999.25;5072005;28;20186;-78
2021/11/07 04:02:49;;;;;;;26.65;15.60;;;;;;;7.03;89.38;99997.50;5071284;28;20197;-78
2021/11/07 04:05:17;;;;;;;24.75;15.40;;;;;;;6.85;91.00;99993.69;5071470;28;20189;-78
2021/11/07 04:07:44;;;;;;;25.45;15.70;;;;;;;6.56;93.15;100006.34;5071652;28;20189;-77
2021/11/07 04:10:11;;;;;;;27.63;16.60;;;;;;;6.72;92.52;100012.03;5071845;28;20208;-77
2021/11/07 04:12:38;;;;;;;27.13;16.20;;;;;;;6.78;92.19;100025.16;5071404;28;20189;-78
2021/11/07 04:15:06;;;;;;;26.55;15.90;;;;;;;6.82;91.89;100028.63;5071350;28;20598;-78
2021/11/07 04:17:33;;;;;;;27.52;16.08;;;;;;;6.71;92.79;100036.16;5071430;28;20193;-78
2021/11/07 04:19:59;;;;;;;24.10;16.05;;;;;;;6.89;91.31;100033.69;5071672;28;20213;-78
2021/11/07 04:22:28;;;;;;;26.83;15.00;;;;;;;7.04;89.28;100031.38;5071364;28;20282;-77
2021/11/07 04:24:54;;;;;;;25.92;15.65;;;;;;;7.01;89.00;100029.72;5071753;28;20306;-77
2021/11/07 04:27:23;;;;;;;20.25;13.07;;;;;;;6.99;89.20;100010.13;5071571;28;20588;-77
2021/11/07 04:29:50;;;;;;;22.50;15.20;;;;;;;6.95;90.06;100000.47;5071676;28;20182;-77
2021/11/07 04:32:17;;;;;;;25.25;15.25;;;;;;;6.93;90.11;100001.47;5071496;28;20221;-77
2021/11/07 04:34:44;;;;;;;23.88;15.00;;;;;;;7.04;89.56;99996.59;5071672;28;20883;-78
2021/11/07 04:37:11;;;;;;;24.00;15.18;;;;;;;6.97;89.58;99992.41;5071207;28;20194;-77
2021/11/07 04:39:39;;;;;;;22.02;14.15;;;;;;;6.94;90.67;100003.19;5071611;28;20659;-77
2021/11/07 04:42:07;;;;;;;23.23;15.38;;;;;;;6.94;90.21;99995.16;5071196;28;20190;-77
2021/11/07 04:44:34;;;;;;;27.17;17.80;;;;;;;6.58;92.11;99980.41;5071151;28;20650;-77
2021/11/07 04:47:01;;;;;;;24.95;16.35;;;;;;;6.69;91.94;99990.69;5071381;28;20197;-78
2021/11/07 04:49:28;;;;;;;21.98;15.38;;;;;;;6.77;92.19;99969.91;5071499;28;20699;-78
2021/11/07 04:51:55;;;;;;;27.58;16.15;;;;;;;7.03;89.57;99955.56;5071901;28;20193;-78
2021/11/07 04:54:22;;;;;;;26.52;15.55;;;;;;;7.04;89.30;99948.38;5074597;28;20221;-77
2021/11/07 04:56:50;;;;;;;25.15;15.50;;;;;;;7.00;90.20;99954.78;5075170;28;20207;-77
2021/11/07 04:59:16;;;;;;;24.38;15.13;;;;;;;7.04;90.00;99957.28;5074766;28;20186;-77
2021/11/07 05:01:43;;;;;;;27.73;15.50;;;;;;;7.13;89.30;99945.34;5075070;28;20208;-78
2021/11/07 05:04:10;;;;;;;22.95;15.25;;;;;;;7.01;89.20;99951.16;5074755;28;20185;-77
2021/11/07 05:06:37;;;;;;;21.88;13.88;;;;;;;7.12;88.49;99929.34;5074913;28;20284;-77
2021/11/07 05:09:05;;;;;;;22.10;14.57;;;;;;;7.08;89.06;99931.28;5075197;28;20252;-78
2021/11/07 05:11:32;;;;;;;22.30;15.13;;;;;;;7.18;87.91;99943.38;5074962;28;20526;-77
2021/11/07 05:14:00;;;;;;;22.30;14.80;;;;;;;7.09;89.27;99928.53;5074242;28;20284;-77
2021/11/07 05:16:27;;;;;;;22.58;15.15;;;;;;;7.29;88.21;99930.44;5074490;28;20185;-77
2021/11/07 05:18:54;;;;;;;22.88;14.50;;;;;;;7.47;85.84;99920.78;5074426;28;20186;-77
2021/11/07 05:21:22;;;;;;;20.58;14.95;;;;;;;7.31;86.11;99907.13;5074212;28;20691;-77
2021/11/07 05:23:49;;;;;;;22.65;15.05;;;;;;;7.24;86.91;99905.63;5074666;28;20529;-77
2021/11/07 05:26:16;;;;;;;17.50;14.02;;;;;;;7.35;86.59;99909.69;5074029;28;20273;-77
2021/11/07 05:28:43;;;;;;;20.33;14.10;;;;;;;7.30;86.56;99902.72;5074647;28;20201;-78
2021/11/07 05:31:12;;;;;;;18.55;13.43;;;;;;;7.29;87.09;99900.97;5074599;28;20616;-78
2021/11/07 05:33:39;;;;;;;21.73;14.48;;;;;;;7.28;87.48;99901.00;5074638;28;20181;-77
2021/11/07 05:36:06;;;;;;;18.20;13.75;;;;;;;7.36;86.78;99896.22;5074324;28;20563;-78
2021/11/07 05:38:32;;;;;;;18.48;13.30;;;;;;;7.10;87.70;99887.44;5074462;28;20190;-78
2021/11/07 05:40:59;;;;;;;18.30;13.55;;;;;;;7.31;87.56;99877.66;5073880;28;20794;-77
2021/11/07 05:43:26;;;;;;;18.48;13.20;;;;;;;7.35;86.89;99877.53;5074328;28;20304;-78
2021/11/07 05:45:53;;;;;;;20.95;13.90;;;;;;;7.27;87.02;99881.41;5073955;28;20272;-78
2021/11/07 05:48:21;;;;;;;18.95;12.85;;;;;;;7.34;87.14;99874.00;5074210;28;20628;-77
2021/11/07 05:50:48;;;;;;;17.58;12.90;;;;;;;7.36;87.16;99866.75;5074204;28;20190;-77
2021/11/07 05:53:15;;;;;;;20.17;14.60;;;;;;;7.17;87.94;99879.13;5074225;28;20211;-77
2021/11/07 05:55:42;;;;;;;19.85;14.88;;;;;;;7.33;87.28;99877.63;5073551;28;20212;-77
2021/11/07 05:58:08;;;;;;;21.33;13.70;;;;;;;7.29;87.47;99882.22;5073885;28;20185;-78
2021/11/07 06:00:35;;;;;;;20.30;14.18;;;;;;;7.13;87.86;99880.22;5074009;28;20205;-77
2021/11/07 06:03:06;;;;;;;20.52;13.40;;;;;;;7.09;87.89;99874.09;5073897;28;20196;-77
2021/11/07 06:05:34;;;;;;;21.92;14.60;;;;;;;7.12;87.73;99873.09;5073486;28;20228;-77
2021/11/07 06:08:01;;;;;;;19.75;14.40;;;;;;;7.13;87.54;99877.53;5073445;28;20243;-76
2021/11/07 06:10:28;;;;;;;21.50;15.23;;;;;;;7.14;88.74;99857.84;5073246;28;20190;-77
2021/11/07 06:12:55;;;;;;;25.40;14.57;;;;;;;7.15;88.88;99840.88;5073441;28;20197;-77
2021/11/07 06:15:22;;;;;;;22.13;14.20;;;;;;;7.37;87.72;99831.03;5073173;28;20251;-76
2021/11/07 06:17:49;;;;;;;20.77;13.93;;;;;;;7.36;88.00;99839.13;5073671;28;20189;-78
2021/11/07 06:20:15;;;;;;;21.50;13.43;;;;;;;7.43;87.55;99837.91;5073501;28;20652;-78
2021/11/07 06:22:43;;;;;;;21.45;14.18;;;;;;;7.56;86.52;99831.13;5073185;28;20189;-76
2021/11/07 06:25:10;;;;;;;19.42;13.43;;;;;;;7.36;86.96;99833.75;5073208;28;20281;-76
2021/11/07 06:27:37;;;;;;;18.25;13.88;;;;;;;7.47;86.95;99832.38;5067133;28;20493;-76
2021/11/07 06:30:06;;;;;;;20.27;13.25;;;;;;;7.69;86.37;99834.16;5052593;28;20271;-77
2021/11/07 06:32:33;;;;;;;17.83;13.23;;;;;;;7.65;86.03;99830.72;5052882;28;20583;-78
2021/11/07 06:35:00;;;;;;;16.85;12.23;;;;;;;7.56;86.21;99828.44;5052748;28;20569;-75
2021/11/07 06:37:26;;;;;;;16.10;13.10;;;;;;;7.53;86.60;99841.97;5065951;28;20544;-75
2021/11/07 06:39:55;;;;;;;15.73;12.88;;;;;;;7.48;86.98;99833.22;5072085;28;20189;-75
2021/11/07 06:42:22;;;;;;;15.75;11.18;;;;;;;7.45;87.26;99819.97;5072499;28;20232;-76
2021/11/07 06:44:49;;;;;;;15.57;12.57;;;;;;;7.56;86.87;99828.44;5072328;28;20270;-78
2021/11/07 06:47:16;;;;;;;14.32;12.25;;;;;;;7.58;86.52;99844.47;5072649;28;20205;-78
2021/11/07 06:49:43;;;;;;;14.18;11.15;;;;;;;7.38;87.50;99842.59;5072422;28;20276;-77
2021/11/07 06:52:09;;;;;;;15.30;10.88;;;;;;;7.43;86.83;99840.59;5072524;28;20364;-77
2021/11/07 06:54:36;;;;;;;17.42;11.80;;;;;;;7.51;86.98;99822.41;5072335;28;20523;-78
2021/11/07 06:57:05;;;;;;;13.32;11.90;;;;;;;7.36;87.33;99833.75;5072536;28;20198;-77
2021/11/07 06:59:32;;;;;;;13.20;10.85;;;;;;;7.47;86.78;99831.50;5072570;28;20232;-77
2021/11/07 07:01:59;;;;;;;13.60;10.73;;;;;;;7.54;86.60;99841.03;5071991;28;20204;-77
2021/11/07 07:04:25;;;;;;;13.93;11.13;;;;;;;7.23;87.42;99844.94;5072328;28;20186;-77
2021/11/07 07:06:52;;;;;;;20.23;12.10;;;;;;;7.49;88.50;99851.06;5071913;28;20276;-77
2021/11/07 07:09:23;;;;;;;15.88;11.25;;;;;;;7.44;88.06;99858.41;5072288;28;20690;-77
2021/11/07 07:11:52;;;;;;;14.98;11.20;;;;;;;7.34;88.26;99851.69;5072251;28;20189;-77
2021/11/07 07:14:26;;;;;;;16.00;11.57;;;;;;;7.44;88.46;99839.66;5071160;28;20996;-77
2021/11/07 07:17:02;;;;;;;13.77;10.90;;;;;;;7.52;88.39;99843.75;5071824;28;20197;-78
2021/11/07 07:19:44;;;;;;;14.57;12.15;;;;;;;7.46;87.65;99837.78;5072164;28;20188;-78
2021/11/07 07:22:28;;;;;;;13.98;12.38;;;;;;;7.36;87.68;99833.75;5072204;28;20217;-76
2021/11/07 07:25:23;;;;;;;15.07;12.50;;;;;;;7.33;88.74;99837.44;5070514;28;20229;-76
2021/11/07 07:30:49;;;;;;;16.65;11.95;;;;;;;7.44;87.62;99845.00;5060282;28;20668;-76
2021/11/07 07:33:28;;;;;;;13.68;11.45;;;;;;;7.52;87.30;99834.84;5071943;28;20186;-77
2021/11/07 07:35:56;;;;;;;13.68;10.90;;;;;;;7.24;88.86;99825.28;5071022;28;20201;-77
2021/11/07 07:38:23;;;;;;;15.68;11.60;;;;;;;7.31;88.83;99813.38;5072014;28;20192;-76
2021/11/07 07:40:50;;;;;;;14.52;11.52;;;;;;;7.38;88.40;99810.47;5071838;28;20177;-77
2021/11/07 07:43:16;;;;;;;14.38;12.48;;;;;;;7.43;89.18;99803.09;5071757;28;20197;-77
2021/11/07 07:45:44;;;;;;;18.58;14.57;;;;;;;7.32;89.36;99812.44;5072592;28;20185;-76
2021/11/07 07:48:20;;;;;;;14.60;10.60;;;;;;;7.01;91.79;99818.19;5071533;28;20189;-77
2021/11/07 07:50:47;;;;;;;15.30;11.98;;;;;;;7.07;94.86;99817.91;5071547;28;20232;-78
2021/11/07 07:53:14;;;;;;;17.77;12.45;;;;;;;7.34;95.54;99828.44;5071553;28;20192;-77
2021/11/07 07:55:41;;;;;;;16.48;12.63;;;;;;;7.16;95.96;99822.03;5072141;28;20572;-78
2021/11/07 07:58:08;;;;;;;16.10;13.18;;;;;;;7.23;97.52;99828.88;5071982;28;20215;-76
2021/11/07 08:00:35;;;;;;;21.40;14.13;;;;;;;7.06;98.69;99837.59;5071246;28;20219;-77
2021/11/07 08:03:03;;;;;;;17.20;13.70;;;;;;;7.35;100.00;99848.06;5071201;28;20690;-76
2021/11/07 08:05:32;;;;;;;18.50;13.75;;;;;;;7.49;99.92;99851.06;5069614;28;20197;-76
2021/11/07 08:07:58;;;;;;;15.88;13.50;;;;;;;7.33;98.25;99845.47;5072601;28;20194;-78
2021/11/07 08:10:25;;;;;;;18.10;12.95;;;;;;;7.30;100.00;99829.50;5071475;28;20204;-76
2021/11/07 08:12:52;;;;;;;21.02;13.30;;;;;;;7.29;100.00;99822.41;5071520;28;20186;-77
2021/11/07 08:15:19;;;;;;;16.30;12.60;;;;;;;7.42;100.00;99826.34;5071047;28;20238;-77
2021/11/07 08:17:45;;;;;;;19.33;13.68;;;;;;;7.30;100.00;99833.06;5071490;28;20544;-77
2021/11/07 08:20:16;;;;;;;17.73;13.75;;;;;;;7.28;100.00;99837.63;5071466;28;20192;-77
2021/11/07 08:22:43;;;;;;;16.63;12.65;;;;;;;7.31;100.00;99832.13;5071402;28;20705;-76
2021/11/07 08:25:11;;;;;;;20.10;13.32;;;;;;;7.44;100.00;99829.81;5071013;28;20217;-77
2021/11/07 08:27:40;;;;;;;17.17;13.40;;;;;;;7.35;100.00;99826.63;5073380;28;20224;-76
2021/11/07 08:30:08;;;;;;;15.77;12.38;;;;;;;7.52;100.00;99829.50;5075351;28;20275;-76
2021/11/07 08:32:35;;;;;;;16.95;13.65;;;;;;;7.43;100.00;99827.19;5075279;28;20192;-77
2021/11/07 08:35:02;;;;;;;20.73;13.35;;;;;;;7.45;100.00;99822.66;5075616;28;20280;-77
2021/11/07 08:37:34;;;;;;;16.48;12.90;;;;;;;7.38;100.00;99837.25;5074988;28;20197;-77
2021/11/07 08:40:05;;;;;;;15.82;12.82;;;;;;;7.53;100.00;99825.91;5075062;28;20186;-76
2021/11/07 08:42:34;;;;;;;13.98;12.15;;;;;;;7.68;100.00;99813.63;5075482;28;20189;-77
2021/11/07 09:01:35;;;;;;;15.13;12.30;;;;;;;7.89;100.00;99801.09;5074361;28;20501;-77
2021/11/07 09:04:17;;;;;;;13.65;10.88;;;;;;;7.50;100.00;99809.94;5074258;28;20222;-78
2021/11/07 09:06:56;;;;;;;11.90;10.43;;;;;;;7.66;100.00;99827.09;5074570;28;20186;-78
2021/11/07 09:09:26;;;;;;;13.15;11.07;;;;;;;7.73;100.00;99841.09;5068266;28;20603;-78
2021/11/07 09:11:54;;;;;;;14.57;11.23;;;;;;;7.46;100.00;99841.34;5073964;28;20197;-78
2021/11/07 09:14:24;;;;;;;13.35;11.10;;;;;;;7.25;100.00;99827.00;5074215;28;20304;-78
2021/11/07 09:16:52;;;;;;;13.55;11.32;;;;;;;7.31;100.00;99826.78;5073963;28;20237;-77
2021/11/07 09:19:22;;;;;;;13.55;11.13;;;;;;;7.68;100.00;99795.75;5073813;28;20195;-77
2021/11/07 09:21:52;;;;;;;12.95;11.32;;;;;;;7.77;100.00;99764.13;5074043;28;20194;-77
2021/11/07 09:24:30;;;;;;;13.18;11.38;;;;;;;7.82;100.00;99757.59;5074117;28;20288;-77
2021/11/07 09:27:05;;;;;;;14.23;11.88;;;;;;;7.84;100.00;99761.09;5073993;28;20284;-78
2021/11/07 09:29:44;;;;;;;14.35;11.88;;;;;;;7.96;100.00;99758.81;5073988;28;20539;-77
2021/11/07 09:32:24;;;;;;;11.77;10.45;;;;;;;7.66;100.00;99773.50;5066228;28;20191;-78
2021/11/07 09:34:55;;;;;;;12.00;9.57;;;;;;;7.57;100.00;99776.56;5073488;28;20181;-78
2021/11/07 09:37:27;;;;;;;12.25;10.90;;;;;;;7.70;100.00;99774.25;5073499;28;20205;-78
2021/11/07 09:39:57;;;;;;;12.65;10.80;;;;;;;7.70;100.00;99779.59;5073571;28;20187;-78
2021/11/07 09:45:14;;;;;;;10.55;8.73;;;;;;;7.70;100.00;99790.31;5066570;28;20187;-79
2021/11/07 09:47:45;;;;;;;9.60;8.63;;;;;;;7.69;100.00;99789.47;5073770;28;20689;-77
2021/11/07 09:50:12;;;;;;;9.85;8.20;;;;;;;7.58;100.00;99806.94;5073407;28;20190;-79
2021/11/07 09:52:44;;;;;;;9.13;8.13;;;;;;;7.52;100.00;99814.28;5073543;28;20288;-79
2021/11/07 09:55:11;;;;;;;9.00;8.10;;;;;;;7.44;100.00;99808.41;5070581;28;20205;-79
2021/11/07 09:57:39;;;;;;;8.45;7.35;;;;;;;7.51;100.00;99811.69;5072796;28;20197;-77
2021/11/07 10:00:10;;;;;;;13.52;8.43;;;;;;;7.55;100.00;99799.00;5072689;28;20185;-78
2021/11/07 10:02:36;;;;;;;9.55;8.43;;;;;;;7.71;100.00;99778.66;5072580;28;20264;-78
2021/11/07 10:05:04;;;;;;;9.68;8.38;;;;;;;7.82;100.00;99779.06;5072764;28;20190;-79
2021/11/07 10:07:34;;;;;;;10.55;8.90;;;;;;;7.72;100.00;99792.00;5072688;28;20197;-78
2021/11/07 10:10:11;;;;;;;12.18;8.90;;;;;;;7.84;100.00;99784.34;5072955;28;20229;-78
2021/11/07 10:12:41;;;;;;;10.77;8.88;;;;;;;8.03;100.00;99784.44;5072008;28;20188;-80
2021/11/07 10:15:11;;;;;;;10.63;8.80;;;;;;;7.87;100.00;99792.28;5072570;28;20217;-78
2021/11/07 10:17:43;;;;;;;12.00;9.38;;;;;;;7.92;100.00;99792.94;5072363;28;20206;-78
2021/11/07 10:20:28;;;;;;;9.77;8.50;;;;;;;8.07;100.00;99792.28;5072592;28;20189;-77
2021/11/07 10:23:05;;;;;;;9.02;8.13;;;;;;;8.00;100.00;99800.63;5064815;28;20347;-77
2021/11/07 10:25:38;;;;;;;10.13;8.38;;;;;;;8.03;100.00;99801.38;5072508;28;20189;-77
2021/11/07 10:28:19;;;;;;;11.85;8.95;;;;;;;7.67;100.00;99799.38;5072958;28;20201;-77
2021/11/07 10:30:49;;;;;;;11.50;8.40;;;;;;;7.71;100.00;99786.69;5072070;28;20194;-78
2021/11/07 10:33:38;;;;;;;9.48;8.32;;;;;;;7.80;100.00;99785.41;5072008;28;20189;-78
2021/11/07 10:39:14;;;;;;;9.20;7.90;;;;;;;8.06;100.00;99795.88;5064631;28;20302;-77
2021/11/07 10:44:43;;;;;;;11.32;7.82;;;;;;;8.15;100.00;99800.81;5061310;28;20202;-77
2021/11/07 10:47:32;;;;;;;9.70;7.95;;;;;;;7.96;100.00;99785.63;5071886;28;20186;-77
2021/11/07 10:52:47;;;;;;;10.20;8.63;;;;;;;8.19;100.00;99779.25;5071733;28;20224;-78
2021/11/07 10:55:18;;;;;;;11.05;8.10;;;;;;;8.04;100.00;99780.81;5071296;28;20636;-79
2021/11/07 10:57:46;;;;;;;8.73;7.18;;;;;;;7.93;100.00;99784.81;5064146;28;20218;-79
2021/11/07 11:00:25;;;;;;;9.35;7.40;;;;;;;8.00;100.00;99766.66;5072070;28;20281;-77
2021/11/07 11:02:54;;;;;;;12.57;8.10;;;;;;;8.43;100.00;99753.13;5071694;28;20190;-78
2021/11/07 11:05:25;;;;;;;9.02;7.35;;;;;;;8.47;100.00;99750.22;5071183;28;20188;-78
2021/11/07 11:07:54;;;;;;;7.80;7.00;;;;;;;8.31;100.00;99747.34;5072471;28;20520;-79
2021/11/07 11:10:23;;;;;;;6.35;5.72;;;;;;;8.35;100.00;99754.31;5073152;28;20282;-77
2021/11/07 11:13:06;;;;;;;7.25;6.20;;;;;;;8.29;100.00;99733.13;5073576;28;20195;-76
2021/11/07 11:15:42;;;;;;;6.72;6.03;;;;;;;8.35;100.00;99734.66;5071279;28;20222;-77
2021/11/07 11:21:12;;;;;;;7.80;6.22;;;;;;;8.54;100.00;99729.31;5065381;28;20204;-77
2021/11/07 11:23:45;;;;;;;5.85;5.28;;;;;;;8.67;100.00;99730.47;5067590;28;20587;-79
2021/11/07 11:26:24;;;;;;;7.50;6.10;;;;;;;8.51;100.00;99724.97;5071555;28;20188;-78
2021/11/07 11:29:00;;;;;;;6.82;5.75;;;;;;;8.43;100.00;99745.94;5071805;28;20550;-79
2021/11/07 11:31:34;;;;;;;6.28;5.10;;;;;;;8.47;100.00;99735.94;5072223;28;20610;-78
2021/11/07 11:34:01;;;;;;;5.18;4.65;;;;;;;8.18;100.00;99729.22;5072084;28;20198;-78
2021/11/07 11:36:32;;;;;;;8.15;4.80;;;;;;;8.35;100.00;99718.56;5072016;28;20972;-78
2021/11/07 11:39:05;;;;;;;6.00;4.90;;;;;;;8.31;100.00;99731.25;5070820;28;20191;-77
2021/11/07 11:41:39;;;;;;;5.15;4.43;;;;;;;8.34;100.00;99741.84;5064373;28;20588;-78
2021/11/07 11:44:07;;;;;;;6.13;5.28;;;;;;;8.35;100.00;99742.72;5070887;28;20226;-78
2021/11/07 11:46:46;;;;;;;4.38;3.92;;;;;;;8.24;100.00;99731.63;5070602;28;20585;-79
2021/11/07 11:49:33;;;;;;;5.65;4.40;;;;;;;8.12;100.00;99728.56;5068368;28;20292;-78
2021/11/07 11:57:47;;;;;;;5.18;4.68;;;;;;;8.29;100.00;99713.47;5068596;28;20699;-78
2021/11/07 12:00:33;;;;;;;6.20;4.90;;;;;;;8.41;100.00;99707.59;5074992;28;20212;-79
2021/11/07 12:03:07;;;;;;;5.05;3.90;;;;;;;8.40;100.00;99707.63;5074556;28;20252;-80
2021/11/07 12:05:40;;;;;;;4.25;3.85;;;;;;;8.31;100.00;99695.50;5072553;28;20196;-79
2021/11/07 12:08:30;;;;;;;4.40;3.72;;;;;;;8.18;100.00;99705.94;5072326;28;20198;-79
2021/11/07 12:11:26;;;;;;;4.25;3.85;;;;;;;8.16;100.00;99697.09;5071970;28;20277;-78
2021/11/07 12:14:04;;;;;;;4.60;4.18;;;;;;;8.17;100.00;99698.84;5071989;28;20206;-80